Ascanius — V7FS9 — position and weather

sailwx.info

Track history (hours):
 
Tides and Currents Weather Stations Pressure Air Temp Water Temp Dewpoint Dewpoint Depression Visibility Wind Speed Wind Dir Waves Ship Positions

Ascanius

Last reported at 2017-Jan-01 05:04 UTC. Time now 2017-Jan-17 23:39 UTC.
Position N 34°02' E 134°57'.
Warning: this ship's position is 16 days out of date.

Length 225 m; draft 8.4 m.

Type: Cargo ship. MMSI: 538002012.

Date/timePositionNaut miles runAvg speedWind from/ knotsBaromVisibWave heightAir tempDewpointWater temp
2017-Jan-01 05:04N 34°02' E 134°57'612.2
2017-Jan-01 04:33N 34°08' E 134°56'1111.0
2017-Jan-01 03:31N 34°20' E 134°59'1111.0
2017-Jan-01 02:33N 34°28' E 135°07'1211.8
2017-Jan-01 01:33N 34°37' E 135°16'5 3.6
2017-Jan-01 00:14N 34°42' E 135°15'0 0.0
2016-Dec-31 23:32N 34°42' E 135°15'0 0.0
2016-Dec-31 22:33N 34°42' E 135°15'0 0.0
2016-Dec-31 21:33N 34°42' E 135°15'0 0.0
2016-Dec-31 20:33N 34°42' E 135°15'0 0.0
2016-Dec-31 19:32N 34°42' E 135°15'0 0.0
2016-Dec-31 18:33N 34°42' E 135°15'0 0.0
2016-Dec-31 17:32N 34°42' E 135°15'0 0.0
2016-Dec-31 16:32N 34°42' E 135°15'0 0.0
2016-Dec-31 15:33N 34°42' E 135°15'0 0.0
2016-Dec-31 14:32N 34°42' E 135°15'0 0.0
2016-Dec-31 13:32N 34°42' E 135°15'0 0.0
2016-Dec-31 12:33N 34°42' E 135°15'0 0.0
2016-Dec-31 11:33N 34°42' E 135°15'0 0.0
2016-Dec-31 10:33N 34°42' E 135°15'0 0.0
2016-Dec-31 09:32N 34°42' E 135°15'0 0.0
2016-Dec-31 08:26N 34°42' E 135°15'0 0.0
2016-Dec-31 07:33N 34°42' E 135°15'0 0.0
2016-Dec-31 06:33N 34°42' E 135°15'0 0.0
2016-Dec-31 05:33N 34°42' E 135°15'0 0.0
2016-Dec-31 04:14N 34°42' E 135°15'0 0.0
2016-Dec-31 03:33N 34°42' E 135°15'0 0.0
2016-Dec-31 02:33N 34°42' E 135°15'0 0.0
2016-Dec-31 01:26N 34°42' E 135°15'0 0.0
2016-Dec-31 00:33N 34°42' E 135°15'0 0.0
2016-Dec-30 23:21N 34°42' E 135°15'0 0.0
2016-Dec-30 22:32N 34°42' E 135°15'0 0.0
2016-Dec-30 21:27N 34°42' E 135°15'0 0.0
2016-Dec-30 20:32N 34°42' E 135°15'0 0.0
2016-Dec-30 19:33N 34°42' E 135°15'0 0.0
2016-Dec-30 18:33N 34°42' E 135°15'0 0.0
2016-Dec-30 17:32N 34°42' E 135°15'0 0.0
2016-Dec-30 16:27N 34°42' E 135°15'0 0.0
2016-Dec-30 15:27N 34°42' E 135°15'0 0.0
2016-Dec-30 14:32N 34°42' E 135°15'0 0.0
2016-Dec-30 13:32N 34°42' E 135°15'0 0.0
2016-Dec-30 12:27N 34°42' E 135°15'0 0.0
2016-Dec-30 11:26N 34°42' E 135°15'0 0.0
2016-Dec-30 10:33N 34°42' E 135°15'0 0.0
2016-Dec-30 09:33N 34°42' E 135°15'0 0.0
2016-Dec-30 08:32N 34°42' E 135°15'0 0.0
2016-Dec-30 07:33N 34°42' E 135°15'0 0.0
2016-Dec-30 06:33N 34°42' E 135°15'0 0.0
2016-Dec-30 05:33N 34°42' E 135°15'0 0.0
2016-Dec-30 04:26N 34°42' E 135°15'0 0.0
2016-Dec-30 03:32N 34°42' E 135°15'0 0.0
2016-Dec-30 02:09N 34°42' E 135°15'1 0.9
2016-Dec-30 01:33N 34°41' E 135°15'4 4.3
2016-Dec-30 00:33N 34°38' E 135°17'0 0.1
2016-Dec-29 23:29N 34°38' E 135°18'0 0.0
2016-Dec-29 22:29N 34°38' E 135°18'0 0.1
2016-Dec-29 21:11N 34°38' E 135°18'0 0.1
2016-Dec-29 20:29N 34°38' E 135°18'0 0.0
2016-Dec-29 19:29N 34°38' E 135°18'0 0.0
2016-Dec-29 18:29N 34°38' E 135°18'0 0.0
2016-Dec-29 17:11N 34°38' E 135°18'0 0.0
2016-Dec-29 16:29N 34°38' E 135°18'0 0.0
2016-Dec-29 15:29N 34°38' E 135°18'0 0.0
2016-Dec-29 14:29N 34°38' E 135°18'0 0.0
2016-Dec-29 13:29N 34°38' E 135°18'0 0.0
2016-Dec-29 12:29N 34°38' E 135°18'0 0.0
2016-Dec-29 11:17N 34°38' E 135°18'0 0.0
2016-Dec-29 10:29N 34°38' E 135°18'0 0.1
2016-Dec-29 09:29N 34°38' E 135°18'0 0.0
2016-Dec-29 08:11N 34°38' E 135°18'0 0.0
2016-Dec-29 07:23N 34°38' E 135°18'0 0.0
2016-Dec-29 06:29N 34°38' E 135°18'0 0.0
2016-Dec-29 05:23N 34°38' E 135°18'0 0.2
2016-Dec-29 04:33N 34°38' E 135°18'3 2.6
2016-Dec-29 03:33N 34°35' E 135°17'10 9.9
2016-Dec-29 02:32N 34°27' E 135°09'1111.4
2016-Dec-29 01:32N 34°19' E 134°60'1010.6
2016-Dec-29 00:33N 34°08' E 135°00'6 5.6
2016-Dec-28 23:33N 34°03' E 135°00'  
Track history (hours):
 
Tides and Currents Weather Stations Pressure Air Temp Water Temp Dewpoint Dewpoint Depression Visibility Wind Speed Wind Dir Waves Ship Positions

Ascanius

Last reported at 2017-Jan-01 05:04 UTC. Time now 2017-Jan-17 23:39 UTC.
Position N 34°02' E 134°57'.
Warning: this ship's position is 16 days out of date.

Length 225 m; draft 8.4 m.

Type: Cargo ship. MMSI: 538002012.

Date/timePositionNaut miles runAvg speedWind from/ knotsBaromVisibWave heightAir tempDewpointWater temp
2017-Jan-01 05:04N 34°02' E 134°57'612.2
2017-Jan-01 04:33N 34°08' E 134°56'1111.0
2017-Jan-01 03:31N 34°20' E 134°59'1111.0
2017-Jan-01 02:33N 34°28' E 135°07'1211.8
2017-Jan-01 01:33N 34°37' E 135°16'5 3.6
2017-Jan-01 00:14N 34°42' E 135°15'0 0.0
2016-Dec-31 23:32N 34°42' E 135°15'0 0.0
2016-Dec-31 22:33N 34°42' E 135°15'0 0.0
2016-Dec-31 21:33N 34°42' E 135°15'0 0.0
2016-Dec-31 20:33N 34°42' E 135°15'0 0.0
2016-Dec-31 19:32N 34°42' E 135°15'0 0.0
2016-Dec-31 18:33N 34°42' E 135°15'0 0.0
2016-Dec-31 17:32N 34°42' E 135°15'0 0.0
2016-Dec-31 16:32N 34°42' E 135°15'0 0.0
2016-Dec-31 15:33N 34°42' E 135°15'0 0.0
2016-Dec-31 14:32N 34°42' E 135°15'0 0.0
2016-Dec-31 13:32N 34°42' E 135°15'0 0.0
2016-Dec-31 12:33N 34°42' E 135°15'0 0.0
2016-Dec-31 11:33N 34°42' E 135°15'0 0.0
2016-Dec-31 10:33N 34°42' E 135°15'0 0.0
2016-Dec-31 09:32N 34°42' E 135°15'0 0.0
2016-Dec-31 08:26N 34°42' E 135°15'0 0.0
2016-Dec-31 07:33N 34°42' E 135°15'0 0.0
2016-Dec-31 06:33N 34°42' E 135°15'0 0.0
2016-Dec-31 05:33N 34°42' E 135°15'0 0.0
2016-Dec-31 04:14N 34°42' E 135°15'0 0.0
2016-Dec-31 03:33N 34°42' E 135°15'0 0.0
2016-Dec-31 02:33N 34°42' E 135°15'0 0.0
2016-Dec-31 01:26N 34°42' E 135°15'0 0.0
2016-Dec-31 00:33N 34°42' E 135°15'0 0.0
2016-Dec-30 23:21N 34°42' E 135°15'0 0.0
2016-Dec-30 22:32N 34°42' E 135°15'0 0.0
2016-Dec-30 21:27N 34°42' E 135°15'0 0.0
2016-Dec-30 20:32N 34°42' E 135°15'0 0.0
2016-Dec-30 19:33N 34°42' E 135°15'0 0.0
2016-Dec-30 18:33N 34°42' E 135°15'0 0.0
2016-Dec-30 17:32N 34°42' E 135°15'0 0.0
2016-Dec-30 16:27N 34°42' E 135°15'0 0.0
2016-Dec-30 15:27N 34°42' E 135°15'0 0.0
2016-Dec-30 14:32N 34°42' E 135°15'0 0.0
2016-Dec-30 13:32N 34°42' E 135°15'0 0.0
2016-Dec-30 12:27N 34°42' E 135°15'0 0.0
2016-Dec-30 11:26N 34°42' E 135°15'0 0.0
2016-Dec-30 10:33N 34°42' E 135°15'0 0.0
2016-Dec-30 09:33N 34°42' E 135°15'0 0.0
2016-Dec-30 08:32N 34°42' E 135°15'0 0.0
2016-Dec-30 07:33N 34°42' E 135°15'0 0.0
2016-Dec-30 06:33N 34°42' E 135°15'0 0.0
2016-Dec-30 05:33N 34°42' E 135°15'0 0.0
2016-Dec-30 04:26N 34°42' E 135°15'0 0.0
2016-Dec-30 03:32N 34°42' E 135°15'0 0.0
2016-Dec-30 02:09N 34°42' E 135°15'1 0.9
2016-Dec-30 01:33N 34°41' E 135°15'4 4.3
2016-Dec-30 00:33N 34°38' E 135°17'0 0.1
2016-Dec-29 23:29N 34°38' E 135°18'0 0.0
2016-Dec-29 22:29N 34°38' E 135°18'0 0.1
2016-Dec-29 21:11N 34°38' E 135°18'0 0.1
2016-Dec-29 20:29N 34°38' E 135°18'0 0.0
2016-Dec-29 19:29N 34°38' E 135°18'0 0.0
2016-Dec-29 18:29N 34°38' E 135°18'0 0.0
2016-Dec-29 17:11N 34°38' E 135°18'0 0.0
2016-Dec-29 16:29N 34°38' E 135°18'0 0.0
2016-Dec-29 15:29N 34°38' E 135°18'0 0.0
2016-Dec-29 14:29N 34°38' E 135°18'0 0.0
2016-Dec-29 13:29N 34°38' E 135°18'0 0.0
2016-Dec-29 12:29N 34°38' E 135°18'0 0.0
2016-Dec-29 11:17N 34°38' E 135°18'0 0.0
2016-Dec-29 10:29N 34°38' E 135°18'0 0.1
2016-Dec-29 09:29N 34°38' E 135°18'0 0.0
2016-Dec-29 08:11N 34°38' E 135°18'0 0.0
2016-Dec-29 07:23N 34°38' E 135°18'0 0.0
2016-Dec-29 06:29N 34°38' E 135°18'0 0.0
2016-Dec-29 05:23N 34°38' E 135°18'0 0.2
2016-Dec-29 04:33N 34°38' E 135°18'3 2.6
2016-Dec-29 03:33N 34°35' E 135°17'10 9.9
2016-Dec-29 02:32N 34°27' E 135°09'1111.4
2016-Dec-29 01:32N 34°19' E 134°60'1010.6
2016-Dec-29 00:33N 34°08' E 135°00'6 5.6
2016-Dec-28 23:33N 34°03' E 135°00'  

Dump ship's entire track history